This is the latest recevied weather packets stored in our database for station/object AD0YN. If no packets are shown the sender has not sent any weather packets the latest 1 day(s).
| Time | Temp. | Humidity | Pressure | Rain* | Wind** | Luminosity | Snow |
|---|---|---|---|---|---|---|---|
| 1778016662 | 12.22° C | 64% | 1011.2 hPa | 0 mm | 0 m/s | 151 W/m² | - |
| 1778016358 | 12.22° C | 64% | 1011.1 hPa | 0 mm | 0 m/s | 174 W/m² | - |
| 1778016065 | 12.22° C | 64% | 1011.2 hPa | 0 mm | 0.45 m/s, 277° | 177 W/m² | - |
| 1778015752 | 12.22° C | 61% | 1011 hPa | 0 mm | 0 m/s | 152 W/m² | - |
| 1778015449 | 12.22° C | 63% | 1011 hPa | 0 mm | 0 m/s | 131 W/m² | - |
| 1778015146 | 12.22° C | 63% | 1011.1 hPa | 0 mm | 0 m/s | 143 W/m² | - |
| 1778014843 | 11.67° C | 63% | 1011.2 hPa | 0 mm | 0 m/s | 147 W/m² | - |
| 1778014541 | 11.67° C | 64% | 1011.2 hPa | 0 mm | 0.89 m/s, 259° | 138 W/m² | - |
| 1778014238 | 12.22° C | 61% | 1011.1 hPa | 0 mm | 0.45 m/s, 277° | 150 W/m² | - |
| 1778013935 | 12.22° C | 63% | 1011.3 hPa | 0 mm | 0 m/s | 145 W/m² | - |
| 1778013632 | 12.22° C | 64% | 1011.2 hPa | 0 mm | 0 m/s | 182 W/m² | - |
| 1778013329 | 12.22° C | 62% | 1011.2 hPa | 0 mm | 0 m/s | 140 W/m² | - |
| 1778013026 | 12.22° C | 65% | 1011.4 hPa | 0 mm | 0 m/s | 158 W/m² | - |
| 1778012722 | 12.22° C | 61% | 1011.4 hPa | 0 mm | 0 m/s | 193 W/m² | - |
| 1778012418 | 12.22° C | 62% | 1011.3 hPa | 0 mm | 0 m/s | 162 W/m² | - |
| 1778012115 | 12.22° C | 60% | 1011.4 hPa | 0 mm | 0.45 m/s, 324° | 190 W/m² | - |
| 1778011813 | 12.22° C | 64% | 1011.5 hPa | 0 mm | 0 m/s | 212 W/m² | - |
| 1778011511 | 12.22° C | 62% | 1011.4 hPa | 0 mm | 0 m/s | 232 W/m² | - |
| 1778011207 | 12.22° C | 65% | 1011.4 hPa | 0 mm | 0.45 m/s, 96° | 301 W/m² | - |
| 1778010903 | 12.22° C | 61% | 1011.6 hPa | 0 mm | 0.45 m/s, 290° | 307 W/m² | - |
| 1778010601 | 11.67° C | 68% | 1011.7 hPa | 0 mm | 0 m/s | 231 W/m² | - |
| 1778010298 | 12.22° C | 62% | 1011.4 hPa | 0 mm | 0.89 m/s, 112° | 272 W/m² | - |
| 1778010001 | 11.67° C | 66% | 1011.6 hPa | 0 mm | 0.45 m/s, 81° | 305 W/m² | - |
| 1778009696 | 11.67° C | 64% | 1011.4 hPa | 0 mm | 0.45 m/s, 87° | 257 W/m² | - |
| 1778009393 | 11.67° C | 64% | 1011.8 hPa | 0 mm | 0 m/s | 270 W/m² | - |
* Rain latest hour (hover to see other rain measurements)
** Current wind speed in m/s (hover to see current wind gust speed)